sensor_id;sensor_type;location;lat;lon;timestamp;P1;durP1;ratioP1;P2;durP2;ratioP2
10059;SDS011;5069;49.306;8.636;2023-08-01T00:01:57;6.67;;;3.47;;
10059;SDS011;5069;49.306;8.636;2023-08-01T00:04:58;5.37;;;3.90;;
10059;SDS011;5069;49.306;8.636;2023-08-01T00:08:00;6.73;;;3.90;;
10059;SDS011;5069;49.306;8.636;2023-08-01T00:11:03;7.87;;;3.53;;
10059;SDS011;5069;49.306;8.636;2023-08-01T00:14:05;6.30;;;3.73;;
10059;SDS011;5069;49.306;8.636;2023-08-01T00:17:06;5.93;;;3.60;;
10059;SDS011;5069;49.306;8.636;2023-08-01T00:20:08;5.70;;;4.00;;
10059;SDS011;5069;49.306;8.636;2023-08-01T00:23:10;6.67;;;4.20;;
10059;SDS011;5069;49.306;8.636;2023-08-01T00:26:12;8.10;;;3.90;;
10059;SDS011;5069;49.306;8.636;2023-08-01T00:29:14;7.73;;;3.87;;
10059;SDS011;5069;49.306;8.636;2023-08-01T00:32:15;6.63;;;3.77;;
10059;SDS011;5069;49.306;8.636;2023-08-01T00:35:17;6.87;;;3.80;;
10059;SDS011;5069;49.306;8.636;2023-08-01T00:38:19;6.13;;;3.80;;
10059;SDS011;5069;49.306;8.636;2023-08-01T00:41:20;7.80;;;3.80;;
10059;SDS011;5069;49.306;8.636;2023-08-01T00:44:22;5.17;;;4.13;;
10059;SDS011;5069;49.306;8.636;2023-08-01T00:47:24;6.60;;;4.17;;
10059;SDS011;5069;49.306;8.636;2023-08-01T00:50:25;6.37;;;3.80;;
10059;SDS011;5069;49.306;8.636;2023-08-01T00:53:27;6.33;;;3.63;;
10059;SDS011;5069;49.306;8.636;2023-08-01T00:56:29;5.63;;;3.60;;
10059;SDS011;5069;49.306;8.636;2023-08-01T00:59:31;5.30;;;3.53;;
10059;SDS011;5069;49.306;8.636;2023-08-01T01:02:33;4.77;;;3.67;;
10059;SDS011;5069;49.306;8.636;2023-08-01T01:05:36;9.90;;;4.13;;
10059;SDS011;5069;49.306;8.636;2023-08-01T01:08:41;6.50;;;3.93;;
10059;SDS011;5069;49.306;8.636;2023-08-01T01:11:43;7.43;;;4.00;;
10059;SDS011;5069;49.306;8.636;2023-08-01T01:14:45;7.60;;;3.70;;
10059;SDS011;5069;49.306;8.636;2023-08-01T01:17:47;5.97;;;4.47;;
10059;SDS011;5069;49.306;8.636;2023-08-01T01:20:48;4.90;;;3.73;;
10059;SDS011;5069;49.306;8.636;2023-08-01T01:23:50;7.27;;;4.20;;
10059;SDS011;5069;49.306;8.636;2023-08-01T01:26:54;5.77;;;3.90;;
10059;SDS011;5069;49.306;8.636;2023-08-01T01:29:57;7.77;;;3.93;;
10059;SDS011;5069;49.306;8.636;2023-08-01T01:33:00;6.33;;;4.10;;
10059;SDS011;5069;49.306;8.636;2023-08-01T01:36:02;5.63;;;3.53;;
10059;SDS011;5069;49.306;8.636;2023-08-01T01:39:03;6.43;;;3.77;;
10059;SDS011;5069;49.306;8.636;2023-08-01T01:42:05;6.37;;;4.03;;
10059;SDS011;5069;49.306;8.636;2023-08-01T01:45:07;7.27;;;4.10;;
10059;SDS011;5069;49.306;8.636;2023-08-01T01:48:09;7.00;;;3.90;;
10059;SDS011;5069;49.306;8.636;2023-08-01T01:51:10;5.77;;;3.33;;
10059;SDS011;5069;49.306;8.636;2023-08-01T01:54:12;5.67;;;4.13;;
10059;SDS011;5069;49.306;8.636;2023-08-01T01:57:13;5.67;;;3.97;;
10059;SDS011;5069;49.306;8.636;2023-08-01T02:00:15;7.40;;;3.80;;
10059;SDS011;5069;49.306;8.636;2023-08-01T02:03:16;5.83;;;3.57;;
10059;SDS011;5069;49.306;8.636;2023-08-01T02:06:18;6.73;;;3.97;;
10059;SDS011;5069;49.306;8.636;2023-08-01T02:09:19;5.77;;;4.10;;
10059;SDS011;5069;49.306;8.636;2023-08-01T02:12:21;8.53;;;3.73;;
10059;SDS011;5069;49.306;8.636;2023-08-01T02:15:22;7.57;;;4.20;;
10059;SDS011;5069;49.306;8.636;2023-08-01T02:18:24;6.00;;;4.30;;
10059;SDS011;5069;49.306;8.636;2023-08-01T02:21:25;6.03;;;3.90;;
10059;SDS011;5069;49.306;8.636;2023-08-01T02:24:27;7.47;;;3.63;;
10059;SDS011;5069;49.306;8.636;2023-08-01T02:27:29;8.00;;;3.93;;
10059;SDS011;5069;49.306;8.636;2023-08-01T02:30:30;5.13;;;4.00;;
10059;SDS011;5069;49.306;8.636;2023-08-01T02:33:32;8.37;;;3.90;;
10059;SDS011;5069;49.306;8.636;2023-08-01T02:36:35;6.60;;;3.90;;
10059;SDS011;5069;49.306;8.636;2023-08-01T02:39:36;6.33;;;3.63;;
10059;SDS011;5069;49.306;8.636;2023-08-01T02:42:38;8.37;;;4.23;;
10059;SDS011;5069;49.306;8.636;2023-08-01T02:45:41;7.23;;;4.20;;
10059;SDS011;5069;49.306;8.636;2023-08-01T02:48:43;6.33;;;4.10;;
10059;SDS011;5069;49.306;8.636;2023-08-01T02:51:44;5.90;;;4.13;;
10059;SDS011;5069;49.306;8.636;2023-08-01T02:54:46;7.73;;;4.20;;
10059;SDS011;5069;49.306;8.636;2023-08-01T02:57:47;7.73;;;4.40;;
10059;SDS011;5069;49.306;8.636;2023-08-01T03:00:49;5.43;;;3.80;;
10059;SDS011;5069;49.306;8.636;2023-08-01T03:03:50;10.63;;;4.30;;
10059;SDS011;5069;49.306;8.636;2023-08-01T03:06:52;4.93;;;3.73;;
10059;SDS011;5069;49.306;8.636;2023-08-01T03:09:54;7.20;;;4.00;;
10059;SDS011;5069;49.306;8.636;2023-08-01T03:12:56;5.30;;;4.10;;
10059;SDS011;5069;49.306;8.636;2023-08-01T03:15:58;7.57;;;4.40;;
10059;SDS011;5069;49.306;8.636;2023-08-01T03:18:59;5.60;;;3.57;;
10059;SDS011;5069;49.306;8.636;2023-08-01T03:22:05;5.47;;;3.80;;
10059;SDS011;5069;49.306;8.636;2023-08-01T03:25:07;6.50;;;4.20;;
10059;SDS011;5069;49.306;8.636;2023-08-01T03:28:09;5.77;;;4.23;;
10059;SDS011;5069;49.306;8.636;2023-08-01T03:31:10;7.50;;;4.00;;
10059;SDS011;5069;49.306;8.636;2023-08-01T03:34:12;9.07;;;4.67;;
10059;SDS011;5069;49.306;8.636;2023-08-01T03:37:14;4.53;;;3.77;;
10059;SDS011;5069;49.306;8.636;2023-08-01T03:40:15;6.47;;;3.97;;
10059;SDS011;5069;49.306;8.636;2023-08-01T03:43:17;8.23;;;4.10;;
10059;SDS011;5069;49.306;8.636;2023-08-01T03:46:18;6.67;;;4.30;;
10059;SDS011;5069;49.306;8.636;2023-08-01T03:49:22;7.43;;;3.87;;
10059;SDS011;5069;49.306;8.636;2023-08-01T03:52:24;9.30;;;3.70;;
10059;SDS011;5069;49.306;8.636;2023-08-01T03:55:26;5.93;;;3.90;;
10059;SDS011;5069;49.306;8.636;2023-08-01T03:58:27;5.10;;;3.50;;
10059;SDS011;5069;49.306;8.636;2023-08-01T04:01:28;6.73;;;3.97;;
10059;SDS011;5069;49.306;8.636;2023-08-01T04:04:30;6.83;;;3.70;;
10059;SDS011;5069;49.306;8.636;2023-08-01T04:07:32;6.87;;;3.50;;
10059;SDS011;5069;49.306;8.636;2023-08-01T04:10:34;5.63;;;3.50;;
10059;SDS011;5069;49.306;8.636;2023-08-01T04:13:35;5.30;;;3.90;;
10059;SDS011;5069;49.306;8.636;2023-08-01T04:16:36;6.33;;;3.90;;
10059;SDS011;5069;49.306;8.636;2023-08-01T04:19:38;6.90;;;3.70;;
10059;SDS011;5069;49.306;8.636;2023-08-01T04:22:40;6.53;;;4.07;;
10059;SDS011;5069;49.306;8.636;2023-08-01T04:25:42;5.57;;;3.37;;
10059;SDS011;5069;49.306;8.636;2023-08-01T04:28:45;6.37;;;4.20;;
10059;SDS011;5069;49.306;8.636;2023-08-01T04:31:47;4.70;;;3.47;;
10059;SDS011;5069;49.306;8.636;2023-08-01T04:34:48;8.63;;;4.10;;
10059;SDS011;5069;49.306;8.636;2023-08-01T04:37:50;5.67;;;3.93;;
10059;SDS011;5069;49.306;8.636;2023-08-01T04:40:51;5.90;;;3.83;;
10059;SDS011;5069;49.306;8.636;2023-08-01T04:43:53;6.63;;;4.23;;
10059;SDS011;5069;49.306;8.636;2023-08-01T04:46:54;6.70;;;3.80;;
10059;SDS011;5069;49.306;8.636;2023-08-01T04:49:56;6.67;;;3.83;;
10059;SDS011;5069;49.306;8.636;2023-08-01T04:52:57;7.23;;;4.17;;
10059;SDS011;5069;49.306;8.636;2023-08-01T04:55:59;7.30;;;3.87;;
10059;SDS011;5069;49.306;8.636;2023-08-01T04:59:00;9.47;;;4.00;;
10059;SDS011;5069;49.306;8.636;2023-08-01T05:02:03;7.50;;;4.07;;
10059;SDS011;5069;49.306;8.636;2023-08-01T05:05:05;6.60;;;3.70;;
10059;SDS011;5069;49.306;8.636;2023-08-01T05:08:07;5.23;;;3.83;;
10059;SDS011;5069;49.306;8.636;2023-08-01T05:11:08;6.83;;;4.13;;
10059;SDS011;5069;49.306;8.636;2023-08-01T05:14:10;7.03;;;3.63;;
10059;SDS011;5069;49.306;8.636;2023-08-01T05:17:11;6.73;;;3.97;;
10059;SDS011;5069;49.306;8.636;2023-08-01T05:20:13;7.43;;;3.33;;
10059;SDS011;5069;49.306;8.636;2023-08-01T05:23:15;7.03;;;4.07;;
10059;SDS011;5069;49.306;8.636;2023-08-01T05:26:16;6.37;;;3.87;;
10059;SDS011;5069;49.306;8.636;2023-08-01T05:29:18;8.37;;;4.20;;
10059;SDS011;5069;49.306;8.636;2023-08-01T05:32:19;6.97;;;4.03;;
10059;SDS011;5069;49.306;8.636;2023-08-01T05:35:21;8.80;;;4.07;;
10059;SDS011;5069;49.306;8.636;2023-08-01T05:38:23;7.23;;;4.30;;
10059;SDS011;5069;49.306;8.636;2023-08-01T05:41:24;6.43;;;4.13;;
10059;SDS011;5069;49.306;8.636;2023-08-01T05:44:26;7.70;;;4.33;;
10059;SDS011;5069;49.306;8.636;2023-08-01T05:47:27;6.20;;;4.03;;
10059;SDS011;5069;49.306;8.636;2023-08-01T05:50:29;7.50;;;5.00;;
10059;SDS011;5069;49.306;8.636;2023-08-01T05:53:30;8.73;;;4.77;;
10059;SDS011;5069;49.306;8.636;2023-08-01T05:56:32;9.07;;;5.17;;
10059;SDS011;5069;49.306;8.636;2023-08-01T05:59:34;9.07;;;5.47;;
10059;SDS011;5069;49.306;8.636;2023-08-01T06:02:35;7.47;;;4.77;;
10059;SDS011;5069;49.306;8.636;2023-08-01T06:05:37;7.50;;;4.80;;
10059;SDS011;5069;49.306;8.636;2023-08-01T06:08:39;7.73;;;4.93;;
10059;SDS011;5069;49.306;8.636;2023-08-01T06:11:40;8.17;;;5.10;;
10059;SDS011;5069;49.306;8.636;2023-08-01T06:14:42;8.10;;;5.10;;
10059;SDS011;5069;49.306;8.636;2023-08-01T06:17:44;10.33;;;5.17;;
10059;SDS011;5069;49.306;8.636;2023-08-01T06:20:45;8.50;;;4.73;;
10059;SDS011;5069;49.306;8.636;2023-08-01T06:23:47;7.90;;;4.50;;
10059;SDS011;5069;49.306;8.636;2023-08-01T06:26:48;7.87;;;4.77;;
10059;SDS011;5069;49.306;8.636;2023-08-01T06:29:50;8.37;;;4.40;;
10059;SDS011;5069;49.306;8.636;2023-08-01T06:32:51;8.07;;;4.70;;
10059;SDS011;5069;49.306;8.636;2023-08-01T06:35:53;10.93;;;4.10;;
10059;SDS011;5069;49.306;8.636;2023-08-01T06:38:54;8.47;;;4.57;;
10059;SDS011;5069;49.306;8.636;2023-08-01T06:41:56;5.97;;;3.70;;
10059;SDS011;5069;49.306;8.636;2023-08-01T06:44:57;7.07;;;3.60;;
10059;SDS011;5069;49.306;8.636;2023-08-01T06:47:59;5.27;;;3.80;;
10059;SDS011;5069;49.306;8.636;2023-08-01T06:51:01;5.57;;;3.50;;
10059;SDS011;5069;49.306;8.636;2023-08-01T06:54:03;6.03;;;3.77;;
10059;SDS011;5069;49.306;8.636;2023-08-01T06:57:06;10.63;;;3.67;;
10059;SDS011;5069;49.306;8.636;2023-08-01T07:00:08;4.87;;;3.67;;
10059;SDS011;5069;49.306;8.636;2023-08-01T07:03:10;7.70;;;3.73;;
10059;SDS011;5069;49.306;8.636;2023-08-01T07:06:11;5.00;;;3.70;;
10059;SDS011;5069;49.306;8.636;2023-08-01T07:09:13;5.10;;;3.50;;
10059;SDS011;5069;49.306;8.636;2023-08-01T07:12:14;6.53;;;3.97;;
10059;SDS011;5069;49.306;8.636;2023-08-01T07:15:16;4.63;;;3.70;;
10059;SDS011;5069;49.306;8.636;2023-08-01T07:18:18;4.93;;;3.37;;
10059;SDS011;5069;49.306;8.636;2023-08-01T07:21:20;4.13;;;2.97;;
10059;SDS011;5069;49.306;8.636;2023-08-01T07:24:21;5.13;;;3.30;;
10059;SDS011;5069;49.306;8.636;2023-08-01T07:27:23;4.70;;;3.23;;
10059;SDS011;5069;49.306;8.636;2023-08-01T07:30:24;4.90;;;3.23;;
10059;SDS011;5069;49.306;8.636;2023-08-01T07:33:26;4.43;;;3.53;;
10059;SDS011;5069;49.306;8.636;2023-08-01T07:36:27;5.13;;;3.43;;
10059;SDS011;5069;49.306;8.636;2023-08-01T07:39:29;4.63;;;3.43;;
10059;SDS011;5069;49.306;8.636;2023-08-01T07:42:30;4.83;;;3.30;;
10059;SDS011;5069;49.306;8.636;2023-08-01T07:45:33;5.30;;;3.80;;
10059;SDS011;5069;49.306;8.636;2023-08-01T07:48:35;9.13;;;4.17;;
10059;SDS011;5069;49.306;8.636;2023-08-01T07:51:37;6.47;;;4.07;;
10059;SDS011;5069;49.306;8.636;2023-08-01T07:54:38;6.03;;;3.77;;
10059;SDS011;5069;49.306;8.636;2023-08-01T07:57:40;4.17;;;3.63;;
10059;SDS011;5069;49.306;8.636;2023-08-01T08:00:43;6.40;;;3.97;;
10059;SDS011;5069;49.306;8.636;2023-08-01T08:03:45;5.90;;;3.80;;
10059;SDS011;5069;49.306;8.636;2023-08-01T08:06:46;4.37;;;3.33;;
10059;SDS011;5069;49.306;8.636;2023-08-01T08:09:48;5.50;;;4.03;;
10059;SDS011;5069;49.306;8.636;2023-08-01T08:12:49;4.80;;;3.53;;
10059;SDS011;5069;49.306;8.636;2023-08-01T08:15:51;4.83;;;3.30;;
10059;SDS011;5069;49.306;8.636;2023-08-01T08:18:52;6.13;;;3.80;;
10059;SDS011;5069;49.306;8.636;2023-08-01T08:21:54;4.77;;;3.83;;
10059;SDS011;5069;49.306;8.636;2023-08-01T08:24:55;5.67;;;3.60;;
10059;SDS011;5069;49.306;8.636;2023-08-01T08:27:57;6.37;;;4.03;;
10059;SDS011;5069;49.306;8.636;2023-08-01T08:30:59;4.00;;;3.60;;
10059;SDS011;5069;49.306;8.636;2023-08-01T08:34:01;5.73;;;4.00;;
10059;SDS011;5069;49.306;8.636;2023-08-01T08:37:03;5.90;;;3.57;;
10059;SDS011;5069;49.306;8.636;2023-08-01T08:40:05;4.10;;;3.23;;
10059;SDS011;5069;49.306;8.636;2023-08-01T08:43:07;6.13;;;3.77;;
10059;SDS011;5069;49.306;8.636;2023-08-01T08:46:10;5.87;;;3.03;;
10059;SDS011;5069;49.306;8.636;2023-08-01T08:49:12;3.40;;;2.80;;
10059;SDS011;5069;49.306;8.636;2023-08-01T08:52:16;6.33;;;2.63;;
10059;SDS011;5069;49.306;8.636;2023-08-01T08:55:20;3.63;;;2.77;;
10059;SDS011;5069;49.306;8.636;2023-08-01T08:58:23;3.23;;;2.50;;
10059;SDS011;5069;49.306;8.636;2023-08-01T09:01:25;4.57;;;2.80;;
10059;SDS011;5069;49.306;8.636;2023-08-01T09:04:27;3.73;;;2.53;;
10059;SDS011;5069;49.306;8.636;2023-08-01T09:07:29;4.37;;;2.00;;
10059;SDS011;5069;49.306;8.636;2023-08-01T09:10:35;3.73;;;2.40;;
10059;SDS011;5069;49.306;8.636;2023-08-01T09:13:36;3.50;;;1.87;;
10059;SDS011;5069;49.306;8.636;2023-08-01T09:16:39;1.77;;;1.60;;
10059;SDS011;5069;49.306;8.636;2023-08-01T09:19:42;1.97;;;1.40;;
10059;SDS011;5069;49.306;8.636;2023-08-01T09:22:44;1.77;;;1.40;;
10059;SDS011;5069;49.306;8.636;2023-08-01T09:25:46;1.03;;;0.93;;
10059;SDS011;5069;49.306;8.636;2023-08-01T09:28:57;1.27;;;0.97;;
10059;SDS011;5069;49.306;8.636;2023-08-01T09:31:59;1.70;;;1.07;;
10059;SDS011;5069;49.306;8.636;2023-08-01T09:35:01;1.47;;;1.00;;
10059;SDS011;5069;49.306;8.636;2023-08-01T09:38:02;1.33;;;1.10;;
10059;SDS011;5069;49.306;8.636;2023-08-01T09:41:04;2.77;;;1.00;;
10059;SDS011;5069;49.306;8.636;2023-08-01T09:44:06;1.03;;;0.97;;
10059;SDS011;5069;49.306;8.636;2023-08-01T09:47:12;1.20;;;0.90;;
10059;SDS011;5069;49.306;8.636;2023-08-01T09:50:20;1.10;;;1.00;;
10059;SDS011;5069;49.306;8.636;2023-08-01T09:53:23;2.00;;;1.10;;
10059;SDS011;5069;49.306;8.636;2023-08-01T09:56:25;1.77;;;1.17;;
10059;SDS011;5069;49.306;8.636;2023-08-01T09:59:27;1.27;;;0.90;;
10059;SDS011;5069;49.306;8.636;2023-08-01T10:02:29;2.30;;;1.10;;
10059;SDS011;5069;49.306;8.636;2023-08-01T10:05:34;0.77;;;0.77;;
10059;SDS011;5069;49.306;8.636;2023-08-01T10:08:37;1.77;;;1.07;;
10059;SDS011;5069;49.306;8.636;2023-08-01T10:11:41;1.83;;;0.80;;
10059;SDS011;5069;49.306;8.636;2023-08-01T10:14:44;1.30;;;1.10;;
10059;SDS011;5069;49.306;8.636;2023-08-01T10:17:46;1.57;;;0.80;;
10059;SDS011;5069;49.306;8.636;2023-08-01T10:20:48;0.87;;;0.87;;
10059;SDS011;5069;49.306;8.636;2023-08-01T10:23:50;1.60;;;1.10;;
10059;SDS011;5069;49.306;8.636;2023-08-01T10:26:52;1.50;;;1.10;;
10059;SDS011;5069;49.306;8.636;2023-08-01T10:29:57;1.17;;;0.93;;
10059;SDS011;5069;49.306;8.636;2023-08-01T10:33:02;0.87;;;0.87;;
10059;SDS011;5069;49.306;8.636;2023-08-01T10:36:25;0.83;;;0.73;;
10059;SDS011;5069;49.306;8.636;2023-08-01T10:39:28;1.37;;;0.90;;
10059;SDS011;5069;49.306;8.636;2023-08-01T10:42:43;2.40;;;0.80;;
10059;SDS011;5069;49.306;8.636;2023-08-01T10:45:45;1.10;;;1.00;;
10059;SDS011;5069;49.306;8.636;2023-08-01T10:48:48;0.90;;;0.80;;
10059;SDS011;5069;49.306;8.636;2023-08-01T10:51:52;1.20;;;1.10;;
10059;SDS011;5069;49.306;8.636;2023-08-01T10:54:58;1.20;;;1.00;;
10059;SDS011;5069;49.306;8.636;2023-08-01T10:58:01;1.33;;;1.20;;
10059;SDS011;5069;49.306;8.636;2023-08-01T11:01:02;1.20;;;1.10;;
10059;SDS011;5069;49.306;8.636;2023-08-01T11:04:05;1.10;;;1.00;;
10059;SDS011;5069;49.306;8.636;2023-08-01T11:07:14;2.70;;;1.10;;
10059;SDS011;5069;49.306;8.636;2023-08-01T11:10:16;2.20;;;1.10;;
10059;SDS011;5069;49.306;8.636;2023-08-01T11:13:17;1.50;;;1.40;;
10059;SDS011;5069;49.306;8.636;2023-08-01T11:16:19;2.17;;;1.20;;
10059;SDS011;5069;49.306;8.636;2023-08-01T11:19:22;2.43;;;1.20;;
10059;SDS011;5069;49.306;8.636;2023-08-01T11:22:25;1.30;;;1.10;;
10059;SDS011;5069;49.306;8.636;2023-08-01T11:25:33;2.67;;;1.10;;
10059;SDS011;5069;49.306;8.636;2023-08-01T11:28:36;3.37;;;1.23;;
10059;SDS011;5069;49.306;8.636;2023-08-01T11:31:39;1.27;;;1.17;;
10059;SDS011;5069;49.306;8.636;2023-08-01T11:34:42;2.20;;;1.60;;
10059;SDS011;5069;49.306;8.636;2023-08-01T11:37:49;1.50;;;1.23;;
10059;SDS011;5069;49.306;8.636;2023-08-01T11:40:51;1.60;;;1.50;;
10059;SDS011;5069;49.306;8.636;2023-08-01T11:43:53;2.83;;;1.40;;
10059;SDS011;5069;49.306;8.636;2023-08-01T11:46:58;1.50;;;1.40;;
10059;SDS011;5069;49.306;8.636;2023-08-01T11:49:59;1.77;;;1.37;;
10059;SDS011;5069;49.306;8.636;2023-08-01T11:53:01;2.17;;;1.20;;
10059;SDS011;5069;49.306;8.636;2023-08-01T11:56:02;2.67;;;1.40;;
10059;SDS011;5069;49.306;8.636;2023-08-01T11:59:10;2.20;;;1.20;;
10059;SDS011;5069;49.306;8.636;2023-08-01T12:05:28;3.03;;;1.30;;
10059;SDS011;5069;49.306;8.636;2023-08-01T12:08:31;3.07;;;1.43;;
10059;SDS011;5069;49.306;8.636;2023-08-01T12:11:33;1.93;;;1.40;;
10059;SDS011;5069;49.306;8.636;2023-08-01T12:14:41;1.60;;;1.43;;
10059;SDS011;5069;49.306;8.636;2023-08-01T12:17:44;1.97;;;1.33;;
10059;SDS011;5069;49.306;8.636;2023-08-01T12:20:45;2.40;;;1.30;;
10059;SDS011;5069;49.306;8.636;2023-08-01T12:23:46;2.03;;;1.40;;
10059;SDS011;5069;49.306;8.636;2023-08-01T12:26:48;2.13;;;1.50;;
10059;SDS011;5069;49.306;8.636;2023-08-01T12:29:49;4.53;;;1.70;;
10059;SDS011;5069;49.306;8.636;2023-08-01T12:32:51;3.03;;;1.60;;
10059;SDS011;5069;49.306;8.636;2023-08-01T12:35:53;2.97;;;1.40;;
10059;SDS011;5069;49.306;8.636;2023-08-01T12:38:54;1.77;;;1.50;;
10059;SDS011;5069;49.306;8.636;2023-08-01T12:41:56;3.13;;;1.70;;
10059;SDS011;5069;49.306;8.636;2023-08-01T12:44:57;3.50;;;1.40;;
10059;SDS011;5069;49.306;8.636;2023-08-01T12:47:59;1.43;;;1.33;;
10059;SDS011;5069;49.306;8.636;2023-08-01T12:51:00;2.43;;;1.30;;
10059;SDS011;5069;49.306;8.636;2023-08-01T12:54:03;2.87;;;1.63;;
10059;SDS011;5069;49.306;8.636;2023-08-01T12:57:05;1.43;;;1.27;;
10059;SDS011;5069;49.306;8.636;2023-08-01T13:00:07;2.70;;;1.30;;
10059;SDS011;5069;49.306;8.636;2023-08-01T13:03:11;3.53;;;1.40;;
10059;SDS011;5069;49.306;8.636;2023-08-01T13:06:13;1.53;;;1.10;;
10059;SDS011;5069;49.306;8.636;2023-08-01T13:09:15;2.70;;;1.60;;
10059;SDS011;5069;49.306;8.636;2023-08-01T13:12:18;2.47;;;1.40;;
10059;SDS011;5069;49.306;8.636;2023-08-01T13:15:19;1.43;;;1.33;;
10059;SDS011;5069;49.306;8.636;2023-08-01T13:18:21;3.33;;;1.30;;
10059;SDS011;5069;49.306;8.636;2023-08-01T13:21:23;2.40;;;1.33;;
10059;SDS011;5069;49.306;8.636;2023-08-01T13:24:24;2.17;;;1.33;;
10059;SDS011;5069;49.306;8.636;2023-08-01T13:27:26;3.27;;;1.60;;
10059;SDS011;5069;49.306;8.636;2023-08-01T13:30:27;2.03;;;1.50;;
10059;SDS011;5069;49.306;8.636;2023-08-01T13:33:29;2.90;;;1.40;;
10059;SDS011;5069;49.306;8.636;2023-08-01T13:36:30;2.60;;;1.50;;
10059;SDS011;5069;49.306;8.636;2023-08-01T13:39:31;2.97;;;1.40;;
10059;SDS011;5069;49.306;8.636;2023-08-01T13:42:33;2.50;;;1.50;;
10059;SDS011;5069;49.306;8.636;2023-08-01T13:45:34;2.30;;;1.43;;
10059;SDS011;5069;49.306;8.636;2023-08-01T13:48:36;2.40;;;1.60;;
10059;SDS011;5069;49.306;8.636;2023-08-01T13:51:38;3.07;;;1.70;;
10059;SDS011;5069;49.306;8.636;2023-08-01T13:54:39;1.90;;;1.20;;
10059;SDS011;5069;49.306;8.636;2023-08-01T13:57:41;3.23;;;1.50;;
10059;SDS011;5069;49.306;8.636;2023-08-01T14:00:43;2.63;;;1.40;;
10059;SDS011;5069;49.306;8.636;2023-08-01T14:03:44;2.33;;;1.60;;
10059;SDS011;5069;49.306;8.636;2023-08-01T14:06:46;2.10;;;1.50;;
10059;SDS011;5069;49.306;8.636;2023-08-01T14:09:47;1.77;;;1.30;;
10059;SDS011;5069;49.306;8.636;2023-08-01T14:12:49;1.50;;;1.40;;
10059;SDS011;5069;49.306;8.636;2023-08-01T14:15:50;2.70;;;1.27;;
10059;SDS011;5069;49.306;8.636;2023-08-01T14:18:52;3.30;;;1.40;;
10059;SDS011;5069;49.306;8.636;2023-08-01T14:21:54;2.07;;;1.40;;
10059;SDS011;5069;49.306;8.636;2023-08-01T14:24:55;4.10;;;1.43;;
10059;SDS011;5069;49.306;8.636;2023-08-01T14:27:57;2.28;;;1.30;;
10059;SDS011;5069;49.306;8.636;2023-08-01T14:31:02;4.07;;;1.40;;
10059;SDS011;5069;49.306;8.636;2023-08-01T14:34:04;3.28;;;1.70;;
10059;SDS011;5069;49.306;8.636;2023-08-01T14:37:06;1.40;;;1.20;;
10059;SDS011;5069;49.306;8.636;2023-08-01T14:40:08;2.53;;;1.40;;
10059;SDS011;5069;49.306;8.636;2023-08-01T14:43:09;3.03;;;1.30;;
10059;SDS011;5069;49.306;8.636;2023-08-01T14:46:11;4.57;;;1.30;;
10059;SDS011;5069;49.306;8.636;2023-08-01T14:49:12;1.63;;;1.30;;
10059;SDS011;5069;49.306;8.636;2023-08-01T14:52:14;2.30;;;1.50;;
10059;SDS011;5069;49.306;8.636;2023-08-01T14:55:16;3.75;;;1.50;;
10059;SDS011;5069;49.306;8.636;2023-08-01T14:58:17;3.10;;;1.40;;
10059;SDS011;5069;49.306;8.636;2023-08-01T15:01:19;1.52;;;1.30;;
10059;SDS011;5069;49.306;8.636;2023-08-01T15:04:20;3.35;;;1.20;;
10059;SDS011;5069;49.306;8.636;2023-08-01T15:07:22;3.20;;;1.52;;
10059;SDS011;5069;49.306;8.636;2023-08-01T15:10:25;2.20;;;1.50;;
10059;SDS011;5069;49.306;8.636;2023-08-01T15:13:26;3.03;;;1.40;;
10059;SDS011;5069;49.306;8.636;2023-08-01T15:16:28;2.67;;;1.30;;
10059;SDS011;5069;49.306;8.636;2023-08-01T15:19:31;2.10;;;1.25;;
10059;SDS011;5069;49.306;8.636;2023-08-01T15:22:33;2.42;;;1.30;;
10059;SDS011;5069;49.306;8.636;2023-08-01T15:25:35;2.42;;;1.23;;
10059;SDS011;5069;49.306;8.636;2023-08-01T15:28:38;2.47;;;1.45;;
10059;SDS011;5069;49.306;8.636;2023-08-01T15:31:40;3.83;;;1.37;;
10059;SDS011;5069;49.306;8.636;2023-08-01T15:34:41;4.60;;;1.63;;
10059;SDS011;5069;49.306;8.636;2023-08-01T15:37:43;1.95;;;1.50;;
10059;SDS011;5069;49.306;8.636;2023-08-01T15:40:44;1.58;;;1.30;;
10059;SDS011;5069;49.306;8.636;2023-08-01T15:43:46;2.15;;;1.50;;
10059;SDS011;5069;49.306;8.636;2023-08-01T15:46:47;2.10;;;1.17;;
10059;SDS011;5069;49.306;8.636;2023-08-01T15:49:49;1.58;;;1.30;;
10059;SDS011;5069;49.306;8.636;2023-08-01T15:52:50;1.60;;;1.27;;
10059;SDS011;5069;49.306;8.636;2023-08-01T15:55:59;3.10;;;1.40;;
10059;SDS011;5069;49.306;8.636;2023-08-01T15:59:02;2.85;;;1.40;;
10059;SDS011;5069;49.306;8.636;2023-08-01T16:02:04;3.77;;;1.40;;
10059;SDS011;5069;49.306;8.636;2023-08-01T16:05:06;2.03;;;1.60;;
10059;SDS011;5069;49.306;8.636;2023-08-01T16:08:08;3.57;;;1.60;;
10059;SDS011;5069;49.306;8.636;2023-08-01T16:11:09;5.53;;;1.53;;
10059;SDS011;5069;49.306;8.636;2023-08-01T16:14:11;4.27;;;1.30;;
10059;SDS011;5069;49.306;8.636;2023-08-01T16:17:12;2.10;;;1.37;;
10059;SDS011;5069;49.306;8.636;2023-08-01T16:20:14;3.70;;;1.50;;
10059;SDS011;5069;49.306;8.636;2023-08-01T16:23:17;2.13;;;1.30;;
10059;SDS011;5069;49.306;8.636;2023-08-01T16:26:19;2.50;;;1.40;;
10059;SDS011;5069;49.306;8.636;2023-08-01T16:29:20;2.93;;;1.40;;
10059;SDS011;5069;49.306;8.636;2023-08-01T16:32:22;1.83;;;1.50;;
10059;SDS011;5069;49.306;8.636;2023-08-01T16:35:23;1.87;;;1.37;;
10059;SDS011;5069;49.306;8.636;2023-08-01T16:38:25;1.50;;;1.30;;
10059;SDS011;5069;49.306;8.636;2023-08-01T16:41:27;5.17;;;1.80;;
10059;SDS011;5069;49.306;8.636;2023-08-01T16:44:29;3.27;;;1.50;;
10059;SDS011;5069;49.306;8.636;2023-08-01T16:47:30;5.77;;;1.40;;
10059;SDS011;5069;49.306;8.636;2023-08-01T16:50:43;5.53;;;1.57;;
10059;SDS011;5069;49.306;8.636;2023-08-01T16:53:44;3.33;;;1.60;;
10059;SDS011;5069;49.306;8.636;2023-08-01T16:56:46;3.53;;;1.80;;
10059;SDS011;5069;49.306;8.636;2023-08-01T16:59:47;3.73;;;1.60;;
10059;SDS011;5069;49.306;8.636;2023-08-01T17:02:49;3.70;;;1.60;;
10059;SDS011;5069;49.306;8.636;2023-08-01T17:05:51;4.07;;;1.43;;
10059;SDS011;5069;49.306;8.636;2023-08-01T17:08:54;4.33;;;1.67;;
10059;SDS011;5069;49.306;8.636;2023-08-01T17:11:56;3.30;;;1.80;;
10059;SDS011;5069;49.306;8.636;2023-08-01T17:14:58;2.67;;;1.50;;
10059;SDS011;5069;49.306;8.636;2023-08-01T17:18:01;4.80;;;1.53;;
10059;SDS011;5069;49.306;8.636;2023-08-01T17:21:02;1.97;;;1.33;;
10059;SDS011;5069;49.306;8.636;2023-08-01T17:24:04;3.70;;;1.70;;
10059;SDS011;5069;49.306;8.636;2023-08-01T17:27:05;3.07;;;1.57;;
10059;SDS011;5069;49.306;8.636;2023-08-01T17:30:08;3.03;;;1.80;;
10059;SDS011;5069;49.306;8.636;2023-08-01T17:33:10;3.20;;;1.70;;
10059;SDS011;5069;49.306;8.636;2023-08-01T17:36:11;3.40;;;1.80;;
10059;SDS011;5069;49.306;8.636;2023-08-01T17:39:13;2.57;;;1.80;;
10059;SDS011;5069;49.306;8.636;2023-08-01T17:42:14;2.30;;;1.43;;
10059;SDS011;5069;49.306;8.636;2023-08-01T17:45:16;3.67;;;1.70;;
10059;SDS011;5069;49.306;8.636;2023-08-01T17:48:17;4.20;;;1.63;;
10059;SDS011;5069;49.306;8.636;2023-08-01T17:51:19;3.67;;;2.00;;
10059;SDS011;5069;49.306;8.636;2023-08-01T17:54:21;3.17;;;1.90;;
10059;SDS011;5069;49.306;8.636;2023-08-01T17:57:22;2.17;;;1.73;;
10059;SDS011;5069;49.306;8.636;2023-08-01T18:00:24;5.00;;;1.83;;
10059;SDS011;5069;49.306;8.636;2023-08-01T18:03:26;5.20;;;2.10;;
10059;SDS011;5069;49.306;8.636;2023-08-01T18:06:28;5.27;;;1.80;;
10059;SDS011;5069;49.306;8.636;2023-08-01T18:09:29;5.57;;;2.40;;
10059;SDS011;5069;49.306;8.636;2023-08-01T18:12:31;4.60;;;1.93;;
10059;SDS011;5069;49.306;8.636;2023-08-01T18:15:39;6.63;;;3.10;;
10059;SDS011;5069;49.306;8.636;2023-08-01T18:18:44;4.60;;;2.60;;
10059;SDS011;5069;49.306;8.636;2023-08-01T18:21:45;4.97;;;2.43;;
10059;SDS011;5069;49.306;8.636;2023-08-01T18:24:47;5.70;;;2.40;;
10059;SDS011;5069;49.306;8.636;2023-08-01T18:27:48;3.13;;;2.17;;
10059;SDS011;5069;49.306;8.636;2023-08-01T18:30:50;5.40;;;2.30;;
10059;SDS011;5069;49.306;8.636;2023-08-01T18:33:51;4.90;;;2.50;;
10059;SDS011;5069;49.306;8.636;2023-08-01T18:36:53;3.90;;;2.17;;